createdAt,value
2018-07-02T00:00:00.765Z,2.03
2018-07-02T00:02:32.922Z,1.67
2018-07-02T00:05:01.386Z,2.50
2018-07-02T00:07:29.974Z,2.30
2018-07-02T00:09:58.473Z,2.17
2018-07-02T00:12:27.089Z,2.47
2018-07-02T00:14:55.657Z,2.23
2018-07-02T00:17:24.124Z,2.97
2018-07-02T00:19:52.604Z,2.83
2018-07-02T00:22:21.274Z,2.70
2018-07-02T00:24:49.767Z,2.93
2018-07-02T00:27:18.248Z,2.63
2018-07-02T00:29:46.773Z,2.77
2018-07-02T00:32:15.321Z,2.90
2018-07-02T00:34:43.796Z,3.20
2018-07-02T00:37:12.262Z,3.47
2018-07-02T00:39:40.781Z,3.30
2018-07-02T00:42:09.335Z,2.90
2018-07-02T00:44:38.374Z,3.10
2018-07-02T00:47:06.931Z,3.37
2018-07-02T00:49:35.503Z,3.47
2018-07-02T00:52:04.005Z,3.30
2018-07-02T00:54:32.572Z,3.50
2018-07-02T00:57:01.144Z,3.43
2018-07-02T00:59:29.651Z,3.63
2018-07-02T01:01:59.866Z,3.60
2018-07-02T01:04:28.433Z,3.67
2018-07-02T01:06:57.049Z,3.77
2018-07-02T01:09:25.567Z,4.10
2018-07-02T01:11:54.108Z,3.20
2018-07-02T01:14:22.702Z,3.70
2018-07-02T01:16:51.268Z,3.93
2018-07-02T01:19:19.707Z,3.43
2018-07-02T01:21:49.262Z,3.57
2018-07-02T01:24:17.707Z,3.40
2018-07-02T01:26:46.153Z,3.83
2018-07-02T01:29:14.678Z,3.73
2018-07-02T01:31:43.108Z,4.00
2018-07-02T01:34:11.636Z,3.93
2018-07-02T01:36:40.114Z,3.90
2018-07-02T01:39:09.928Z,4.47
2018-07-02T01:41:38.377Z,3.83
2018-07-02T01:44:06.847Z,3.80
2018-07-02T01:46:35.397Z,3.60
2018-07-02T01:49:03.918Z,3.83
2018-07-02T01:51:32.608Z,3.60
2018-07-02T01:54:01.159Z,4.00
2018-07-02T01:56:29.782Z,4.13
2018-07-02T01:58:58.316Z,4.57
2018-07-02T02:01:26.859Z,4.67
2018-07-02T02:03:55.323Z,4.07
2018-07-02T02:06:23.907Z,4.40
2018-07-02T02:08:52.488Z,5.07
2018-07-02T02:11:21.157Z,4.43
2018-07-02T02:13:49.668Z,4.80
2018-07-02T02:16:18.257Z,4.37
2018-07-02T02:18:46.786Z,5.20
2018-07-02T02:21:15.277Z,4.37
2018-07-02T02:23:44.490Z,5.20
2018-07-02T02:26:12.951Z,4.50
2018-07-02T02:28:41.421Z,5.00
2018-07-02T02:31:10.035Z,4.63
2018-07-02T02:33:38.641Z,4.40
2018-07-02T02:36:07.190Z,5.23
2018-07-02T02:38:35.677Z,5.30
2018-07-02T02:41:04.146Z,5.27
2018-07-02T02:43:32.628Z,4.83
2018-07-02T02:46:01.222Z,4.73
2018-07-02T02:48:29.693Z,4.70
2018-07-02T02:50:58.137Z,5.43
2018-07-02T02:53:26.665Z,4.80
2018-07-02T02:55:55.143Z,5.23
2018-07-02T02:58:23.588Z,4.90
2018-07-02T03:00:52.108Z,4.50
2018-07-02T03:03:20.562Z,4.37
2018-07-02T03:05:49.140Z,5.10
2018-07-02T03:08:17.571Z,5.20
2018-07-02T03:10:46.040Z,5.00
2018-07-02T03:13:14.518Z,5.13
2018-07-02T03:15:42.981Z,6.07
2018-07-02T03:18:11.453Z,5.40
2018-07-02T03:20:39.889Z,4.93
2018-07-02T03:23:08.449Z,5.33
2018-07-02T03:25:36.970Z,5.20
2018-07-02T03:28:05.635Z,5.53
2018-07-02T03:30:34.194Z,5.33
2018-07-02T03:33:03.187Z,5.23
2018-07-02T03:35:32.065Z,4.80
2018-07-02T03:38:00.762Z,5.00
2018-07-02T03:40:29.346Z,5.10
2018-07-02T03:42:57.842Z,4.73
2018-07-02T03:45:26.305Z,5.20
2018-07-02T03:47:54.787Z,4.90
2018-07-02T03:50:23.324Z,5.17
2018-07-02T03:52:58.605Z,5.07
2018-07-02T03:55:27.078Z,4.97
2018-07-02T03:57:55.590Z,4.53
2018-07-02T04:00:24.210Z,5.00
2018-07-02T04:02:52.665Z,4.77
2018-07-02T04:05:21.222Z,5.00
2018-07-02T04:07:49.749Z,4.87
2018-07-02T04:10:18.291Z,4.77
2018-07-02T04:12:46.792Z,4.67
2018-07-02T04:15:15.260Z,4.43
2018-07-02T04:17:43.707Z,5.13
2018-07-02T04:20:12.243Z,5.03
2018-07-02T04:22:40.709Z,4.57
2018-07-02T04:25:09.441Z,4.63
2018-07-02T04:27:38.041Z,4.27
2018-07-02T04:30:06.622Z,3.97
2018-07-02T04:32:35.150Z,4.17
2018-07-02T04:35:03.636Z,3.97
2018-07-02T04:37:32.118Z,4.00
2018-07-02T04:40:00.717Z,4.13
2018-07-02T04:42:29.151Z,4.03
2018-07-02T04:44:57.661Z,4.43
2018-07-02T04:47:26.285Z,4.10
2018-07-02T04:49:54.765Z,4.47
2018-07-02T04:52:23.312Z,4.23
2018-07-02T04:54:51.872Z,3.27
2018-07-02T04:57:20.419Z,3.67
2018-07-02T04:59:49.011Z,3.87
2018-07-02T05:02:17.449Z,3.80
2018-07-02T05:04:45.939Z,3.57
2018-07-02T05:07:14.421Z,3.50
2018-07-02T05:09:42.896Z,3.13
2018-07-02T05:12:11.946Z,3.70
2018-07-02T05:14:42.102Z,3.70
2018-07-02T05:17:10.592Z,2.87
2018-07-02T05:19:39.368Z,3.33
2018-07-02T05:22:08.085Z,3.40
2018-07-02T05:24:36.547Z,3.60
2018-07-02T05:27:05.188Z,3.40
2018-07-02T05:29:33.925Z,4.10
2018-07-02T05:32:06.525Z,3.30
2018-07-02T05:34:35.051Z,4.20
2018-07-02T05:37:03.581Z,3.23
2018-07-02T05:39:32.014Z,3.57
2018-07-02T05:42:00.600Z,3.67
2018-07-02T05:44:29.119Z,2.97
2018-07-02T05:46:57.562Z,3.40
2018-07-02T05:49:25.985Z,3.00
2018-07-02T05:51:54.531Z,3.60
2018-07-02T05:54:23.034Z,3.43
2018-07-02T05:56:51.714Z,2.80
2018-07-02T05:59:20.202Z,3.90
2018-07-02T06:01:48.700Z,3.17
2018-07-02T06:04:17.364Z,3.20
2018-07-02T06:06:45.848Z,3.10
2018-07-02T06:09:15.012Z,2.93
2018-07-02T06:11:43.539Z,3.60
2018-07-02T06:14:12.249Z,3.07
2018-07-02T06:16:40.914Z,2.57
2018-07-02T06:19:09.713Z,2.77
2018-07-02T06:21:38.491Z,3.03
2018-07-02T06:24:06.969Z,2.70
2018-07-02T06:26:35.476Z,2.70
2018-07-02T06:29:03.986Z,3.20
2018-07-02T06:31:32.609Z,2.23
2018-07-02T06:34:01.077Z,2.53
2018-07-02T06:36:29.527Z,3.20
2018-07-02T06:38:58.075Z,2.70
2018-07-02T06:41:26.573Z,2.67
2018-07-02T06:43:55.168Z,2.50
2018-07-02T06:46:23.722Z,2.77
2018-07-02T06:48:52.151Z,2.47
2018-07-02T06:51:20.669Z,2.50
2018-07-02T06:53:49.201Z,2.60
2018-07-02T06:56:17.829Z,2.37
2018-07-02T06:58:46.352Z,2.47
2018-07-02T07:01:14.812Z,2.23
2018-07-02T07:03:43.283Z,2.70
2018-07-02T07:06:11.808Z,2.63
2018-07-02T07:08:40.327Z,2.63
2018-07-02T07:11:08.685Z,3.10
2018-07-02T07:13:37.217Z,1.97
2018-07-02T07:16:05.801Z,2.60
2018-07-02T07:18:34.294Z,2.77
2018-07-02T07:21:02.809Z,2.13
2018-07-02T07:23:31.362Z,2.57
2018-07-02T07:25:59.924Z,2.40
2018-07-02T07:28:28.415Z,2.23
2018-07-02T07:30:56.885Z,1.47
2018-07-02T07:33:25.369Z,2.40
2018-07-02T07:35:53.861Z,1.80
2018-07-02T07:38:22.265Z,1.77
2018-07-02T07:40:50.870Z,1.77
2018-07-02T07:43:19.388Z,1.83
2018-07-02T07:45:47.818Z,2.33
2018-07-02T07:48:16.308Z,1.80
2018-07-02T07:50:44.893Z,1.70
2018-07-02T07:53:13.387Z,1.73
2018-07-02T07:55:41.821Z,1.87
2018-07-02T07:58:10.329Z,1.60
2018-07-02T08:00:38.783Z,1.67
2018-07-02T08:03:07.220Z,1.67
2018-07-02T08:05:35.742Z,1.33
2018-07-02T08:08:04.226Z,1.63
2018-07-02T08:10:32.709Z,1.63
2018-07-02T08:13:02.435Z,1.40
2018-07-02T08:15:30.873Z,1.43
2018-07-02T08:17:59.380Z,1.30
2018-07-02T08:20:27.819Z,1.17
2018-07-02T08:22:56.372Z,1.20
2018-07-02T08:25:24.798Z,1.20
2018-07-02T08:27:53.306Z,1.33
2018-07-02T08:30:21.719Z,1.33
2018-07-02T08:32:50.334Z,1.10
2018-07-02T08:35:18.851Z,1.20
2018-07-02T08:37:47.329Z,1.50
2018-07-02T08:40:15.835Z,1.47
2018-07-02T08:42:44.300Z,1.00
2018-07-02T08:45:12.834Z,1.53
2018-07-02T08:47:41.928Z,1.20
2018-07-02T08:50:10.460Z,1.40
2018-07-02T08:52:38.937Z,1.50
2018-07-02T08:55:07.592Z,1.00
2018-07-02T08:57:36.134Z,1.50
2018-07-02T09:00:04.741Z,1.70
2018-07-02T09:02:33.272Z,1.33
2018-07-02T09:05:02.372Z,1.33
2018-07-02T09:07:30.955Z,1.10
2018-07-02T09:09:59.432Z,1.80
2018-07-02T09:12:27.914Z,1.73
2018-07-02T09:14:56.599Z,1.47
2018-07-02T09:17:25.093Z,1.37
2018-07-02T09:19:53.520Z,1.20
2018-07-02T09:22:22.146Z,1.90
2018-07-02T09:24:50.837Z,2.00
2018-07-02T09:27:19.329Z,1.87
2018-07-02T09:29:47.793Z,1.77
2018-07-02T09:32:16.299Z,2.50
2018-07-02T09:34:44.764Z,1.03
2018-07-02T09:37:13.257Z,1.20
2018-07-02T09:39:41.690Z,1.33
2018-07-02T09:42:10.145Z,1.40
2018-07-02T09:44:38.707Z,1.27
2018-07-02T09:47:07.511Z,0.90
2018-07-02T09:49:36.180Z,1.10
2018-07-02T09:52:04.652Z,1.03
2018-07-02T09:54:33.193Z,0.90
2018-07-02T09:57:01.741Z,1.93
2018-07-02T09:59:30.296Z,1.17
2018-07-02T10:01:58.778Z,0.83
2018-07-02T10:04:27.902Z,0.80
2018-07-02T10:06:56.388Z,0.70
2018-07-02T10:09:24.936Z,0.90
2018-07-02T10:11:53.354Z,0.87
2018-07-02T10:14:21.911Z,0.83
2018-07-02T10:16:50.338Z,0.93
2018-07-02T10:19:18.959Z,1.10
2018-07-02T10:21:47.417Z,1.30
2018-07-02T10:24:16.280Z,0.87
2018-07-02T10:26:44.826Z,1.13
2018-07-02T10:29:13.432Z,1.03
2018-07-02T10:31:41.920Z,1.23
2018-07-02T10:34:10.360Z,1.17
2018-07-02T10:36:38.887Z,0.83
2018-07-02T10:39:10.813Z,1.07
2018-07-02T10:41:39.321Z,1.00
2018-07-02T10:44:07.992Z,1.30
2018-07-02T10:46:36.521Z,0.70
2018-07-02T10:49:05.128Z,1.00
2018-07-02T10:51:33.735Z,0.80
2018-07-02T10:54:02.192Z,1.10
2018-07-02T10:56:30.664Z,1.10
2018-07-02T10:58:59.281Z,1.23
2018-07-02T11:01:27.902Z,1.27
2018-07-02T11:03:56.331Z,1.27
2018-07-02T11:06:24.829Z,1.17
2018-07-02T11:08:53.335Z,1.03
2018-07-02T11:11:32.064Z,0.97
2018-07-02T11:14:00.619Z,1.00
2018-07-02T11:16:29.260Z,0.90
2018-07-02T11:18:57.765Z,1.07
2018-07-02T11:21:26.273Z,0.90
2018-07-02T11:23:54.809Z,0.80
2018-07-02T11:26:23.344Z,1.00
2018-07-02T11:28:51.786Z,0.90
2018-07-02T11:31:20.307Z,0.77
2018-07-02T11:33:48.880Z,1.10
2018-07-02T11:36:18.581Z,0.90
2018-07-02T11:38:47.113Z,0.80
2018-07-02T11:41:15.712Z,0.77
2018-07-02T11:43:44.287Z,1.10
2018-07-02T11:46:12.812Z,0.80
2018-07-02T11:48:41.345Z,0.90
2018-07-02T11:51:09.823Z,1.13
2018-07-02T11:53:38.452Z,0.90
2018-07-02T11:56:09.255Z,1.10
2018-07-02T11:58:42.896Z,1.00
2018-07-02T12:01:11.412Z,0.93
2018-07-02T12:03:39.944Z,1.17
2018-07-02T12:06:08.510Z,1.50
2018-07-02T12:08:37.057Z,1.10
2018-07-02T12:11:05.552Z,1.10
2018-07-02T12:13:34.032Z,0.80
2018-07-02T12:16:02.535Z,1.20
2018-07-02T12:18:31.101Z,1.17
2018-07-02T12:20:59.635Z,0.97
2018-07-02T12:23:28.171Z,1.07
2018-07-02T12:25:56.748Z,1.20
2018-07-02T12:28:25.203Z,0.97
2018-07-02T12:30:53.749Z,1.47
2018-07-02T12:33:22.193Z,1.00
2018-07-02T12:35:50.757Z,1.03
2018-07-02T12:38:19.253Z,1.10
2018-07-02T12:40:47.678Z,0.90
2018-07-02T12:43:16.220Z,0.87
2018-07-02T12:45:44.703Z,1.10
2018-07-02T12:48:13.326Z,1.57
2018-07-02T12:50:41.800Z,1.13
2018-07-02T12:53:38.967Z,1.10
2018-07-02T12:56:07.417Z,1.03
2018-07-02T12:58:36.101Z,1.00
2018-07-02T13:01:04.554Z,1.00
2018-07-02T13:03:33.190Z,1.27
2018-07-02T13:06:01.732Z,0.80
2018-07-02T13:08:30.371Z,1.20
2018-07-02T13:10:58.907Z,1.43
2018-07-02T13:13:27.433Z,1.40
2018-07-02T13:15:55.997Z,1.00
2018-07-02T13:18:24.450Z,1.00
2018-07-02T13:20:52.911Z,1.30
2018-07-02T13:23:21.362Z,0.90
2018-07-02T13:25:49.896Z,1.50
2018-07-02T13:28:18.414Z,0.83
2018-07-02T13:30:47.051Z,1.83
2018-07-02T13:33:18.562Z,1.50
2018-07-02T13:35:47.027Z,1.60
2018-07-02T13:38:40.074Z,2.07
2018-07-02T13:41:08.624Z,1.73
2018-07-02T13:43:37.112Z,2.00
2018-07-02T13:46:05.607Z,2.27
2018-07-02T13:48:34.163Z,1.07
2018-07-02T13:51:02.663Z,1.27
2018-07-02T13:53:31.261Z,1.50
2018-07-02T13:55:59.732Z,1.73
2018-07-02T13:58:28.183Z,1.67
2018-07-02T14:00:56.728Z,1.90
2018-07-02T14:03:25.267Z,1.90
2018-07-02T14:05:53.946Z,1.37
2018-07-02T14:08:22.633Z,0.70
2018-07-02T14:10:51.150Z,1.17
2018-07-02T14:13:19.737Z,1.33
2018-07-02T14:15:48.312Z,1.03
2018-07-02T14:18:16.875Z,0.90
2018-07-02T14:20:45.400Z,1.03
2018-07-02T14:23:13.910Z,1.00
2018-07-02T14:25:42.430Z,1.20
2018-07-02T14:28:10.889Z,0.80
2018-07-02T14:30:39.431Z,1.13
2018-07-02T14:33:07.975Z,1.60
2018-07-02T14:35:36.435Z,1.43
2018-07-02T14:38:04.936Z,1.50
2018-07-02T14:40:33.505Z,1.27
2018-07-02T14:43:02.202Z,1.77
2018-07-02T14:45:30.947Z,1.33
2018-07-02T14:47:59.255Z,1.73
2018-07-02T14:50:27.777Z,1.80
2018-07-02T14:52:56.420Z,2.03
2018-07-02T14:55:25.013Z,2.00
2018-07-02T14:57:53.492Z,1.90
2018-07-02T15:00:22.018Z,1.70
2018-07-02T15:02:50.540Z,2.10
2018-07-02T15:05:19.221Z,2.00
2018-07-02T15:07:47.702Z,2.50
2018-07-02T15:10:16.179Z,1.63
2018-07-02T15:12:44.763Z,1.80
2018-07-02T15:15:13.275Z,1.80
2018-07-02T15:17:41.710Z,2.10
2018-07-02T15:20:10.223Z,1.90
2018-07-02T15:22:38.788Z,1.30
2018-07-02T15:25:07.806Z,1.30
2018-07-02T15:27:36.275Z,1.47
2018-07-02T15:30:05.205Z,1.20
2018-07-02T15:32:33.675Z,1.13
2018-07-02T15:35:02.124Z,1.03
2018-07-02T15:37:30.692Z,1.30
2018-07-02T15:39:59.296Z,1.20
2018-07-02T15:42:27.811Z,1.23
2018-07-02T15:44:56.365Z,1.17
2018-07-02T15:47:25.628Z,0.87
2018-07-02T15:49:54.144Z,1.17
2018-07-02T15:52:22.599Z,1.37
2018-07-02T15:54:51.136Z,1.10
2018-07-02T15:57:19.600Z,0.60
2018-07-02T15:59:48.164Z,1.20
2018-07-02T16:02:17.032Z,0.80
2018-07-02T16:04:45.713Z,0.90
2018-07-02T16:07:14.014Z,1.47
2018-07-02T16:09:42.761Z,1.00
2018-07-02T16:12:11.317Z,1.30
2018-07-02T16:14:45.377Z,0.90
2018-07-02T16:17:13.893Z,0.60
2018-07-02T16:19:42.441Z,1.40
2018-07-02T16:22:10.985Z,0.77
2018-07-02T16:24:39.501Z,0.80
2018-07-02T16:27:08.026Z,1.13
2018-07-02T16:29:37.168Z,1.10
2018-07-02T16:32:05.688Z,0.87
2018-07-02T16:34:34.197Z,1.07
2018-07-02T16:37:02.827Z,1.10
2018-07-02T16:39:31.361Z,1.30
2018-07-02T16:41:59.909Z,1.10
2018-07-02T16:44:28.411Z,1.00
2018-07-02T16:46:56.967Z,0.87
2018-07-02T16:49:25.588Z,1.10
2018-07-02T16:51:54.382Z,0.60
2018-07-02T16:54:23.130Z,0.90
2018-07-02T16:56:51.868Z,0.57
2018-07-02T16:59:20.381Z,1.13
2018-07-02T17:01:48.862Z,1.20
2018-07-02T17:04:17.323Z,1.03
2018-07-02T17:06:45.869Z,1.20
2018-07-02T17:09:14.869Z,1.20
2018-07-02T17:11:43.463Z,1.27
2018-07-02T17:14:15.252Z,1.40
2018-07-02T17:16:44.986Z,1.10
2018-07-02T17:19:13.473Z,0.90
2018-07-02T17:21:42.040Z,1.17
2018-07-02T17:24:10.522Z,0.97
2018-07-02T17:26:39.052Z,0.90
2018-07-02T17:29:07.548Z,0.90
2018-07-02T17:31:36.091Z,1.00
2018-07-02T17:34:04.679Z,0.77
2018-07-02T17:36:33.208Z,0.93
2018-07-02T17:39:01.772Z,0.80
2018-07-02T17:41:30.222Z,0.97
2018-07-02T17:43:58.794Z,0.83
2018-07-02T17:46:27.870Z,0.90
2018-07-02T17:48:56.884Z,0.80
2018-07-02T17:51:26.266Z,1.03
2018-07-02T17:53:55.287Z,1.00
2018-07-02T17:56:24.478Z,0.60
2018-07-02T17:58:53.625Z,1.00
2018-07-02T18:01:22.657Z,0.60
2018-07-02T18:03:51.766Z,1.17
2018-07-02T18:06:20.888Z,0.70
2018-07-02T18:08:49.448Z,0.90
2018-07-02T18:11:18.011Z,0.90
2018-07-02T18:13:46.682Z,0.70
2018-07-02T18:16:15.175Z,0.90
2018-07-02T18:18:43.645Z,1.10
2018-07-02T18:21:12.120Z,1.20
2018-07-02T18:23:40.721Z,1.30
2018-07-02T18:26:09.209Z,1.00
2018-07-02T18:28:37.931Z,0.90
2018-07-02T18:31:07.257Z,0.90
2018-07-02T18:33:36.264Z,0.90
2018-07-02T18:36:04.916Z,0.77
2018-07-02T18:38:33.954Z,1.17
2018-07-02T18:41:02.441Z,1.17
2018-07-02T18:43:31.455Z,0.70
2018-07-02T18:46:00.819Z,1.03
2018-07-02T18:48:29.408Z,1.13
2018-07-02T18:50:57.856Z,1.03
2018-07-02T18:53:26.398Z,0.70
2018-07-02T18:56:02.071Z,1.07
2018-07-02T18:58:31.247Z,0.90
2018-07-02T19:00:59.846Z,0.90
2018-07-02T19:03:28.308Z,1.10
2018-07-02T19:05:56.906Z,0.93
2018-07-02T19:08:26.186Z,1.00
2018-07-02T19:10:54.653Z,0.80
2018-07-02T19:13:23.181Z,1.10
2018-07-02T19:15:51.821Z,0.67
2018-07-02T19:18:20.312Z,1.43
2018-07-02T19:20:48.831Z,0.60
2018-07-02T19:23:17.398Z,1.17
2018-07-02T19:25:45.978Z,0.90
2018-07-02T19:28:14.437Z,1.10
2018-07-02T19:30:43.085Z,1.63
2018-07-02T19:33:11.644Z,0.87
2018-07-02T19:35:40.163Z,1.00
2018-07-02T19:38:08.685Z,0.70
2018-07-02T19:40:48.256Z,0.80
2018-07-02T19:43:16.697Z,0.77
2018-07-02T19:45:45.155Z,0.80
2018-07-02T19:48:13.874Z,1.27
2018-07-02T19:50:42.535Z,1.10
2018-07-02T19:53:11.037Z,0.70
2018-07-02T19:55:39.549Z,1.10
2018-07-02T19:58:08.622Z,0.70
2018-07-02T20:00:37.133Z,1.00
2018-07-02T20:03:05.815Z,0.80
2018-07-02T20:05:34.253Z,0.97
2018-07-02T20:08:02.877Z,0.70
2018-07-02T20:10:31.580Z,0.90
2018-07-02T20:13:00.026Z,1.63
2018-07-02T20:15:28.613Z,1.17
2018-07-02T20:17:57.232Z,1.30
2018-07-02T20:20:25.707Z,1.13
2018-07-02T20:22:54.395Z,1.60
2018-07-02T20:29:14.902Z,1.00
2018-07-02T20:31:43.402Z,1.20
2018-07-02T20:34:12.032Z,1.07
2018-07-02T20:36:40.565Z,0.83
2018-07-02T20:39:10.744Z,1.30
2018-07-02T20:41:39.336Z,0.53
2018-07-02T20:44:07.947Z,1.03
2018-07-02T20:46:36.408Z,0.83
2018-07-02T20:49:05.758Z,1.17
2018-07-02T20:51:34.377Z,1.23
2018-07-02T20:54:03.165Z,0.83
2018-07-02T20:56:31.774Z,1.87
2018-07-02T20:59:00.237Z,1.03
2018-07-02T21:04:59.778Z,0.97
2018-07-02T21:07:28.406Z,0.83
2018-07-02T21:09:57.014Z,0.80
2018-07-02T21:12:25.514Z,0.80
2018-07-02T21:14:54.020Z,1.00
2018-07-02T21:17:22.682Z,1.03
2018-07-02T21:19:51.223Z,1.07
2018-07-02T21:22:19.760Z,1.37
2018-07-02T21:24:48.366Z,1.00
2018-07-02T21:27:16.948Z,1.40
2018-07-02T21:29:45.534Z,0.90
2018-07-02T21:32:13.986Z,1.37
2018-07-02T21:34:59.161Z,0.73
2018-07-02T21:37:27.679Z,1.00
2018-07-02T21:39:56.451Z,0.70
2018-07-02T21:42:24.953Z,0.87
2018-07-02T21:44:53.419Z,1.10
2018-07-02T21:47:22.361Z,1.00
2018-07-02T21:49:50.902Z,0.93
2018-07-02T21:52:19.394Z,1.00
2018-07-02T21:54:47.964Z,0.97
2018-07-02T21:57:16.408Z,0.90
2018-07-02T21:59:44.930Z,0.67
2018-07-02T22:02:13.659Z,1.13
2018-07-02T22:04:42.203Z,1.07
2018-07-02T22:07:10.889Z,1.40
2018-07-02T22:09:39.466Z,1.00
2018-07-02T22:12:07.954Z,1.10
2018-07-02T22:14:36.500Z,1.00
2018-07-02T22:17:05.018Z,1.13
2018-07-02T22:19:33.437Z,0.83
2018-07-02T22:22:01.972Z,0.90
2018-07-02T22:24:30.421Z,1.10
2018-07-02T22:27:00.147Z,1.00
2018-07-02T22:29:28.628Z,1.47
2018-07-02T22:35:28.301Z,0.77
2018-07-02T22:37:56.756Z,0.90
2018-07-02T22:40:25.473Z,0.90
2018-07-02T22:42:54.083Z,1.30
2018-07-02T22:45:22.527Z,1.20
2018-07-02T22:47:51.158Z,0.97
2018-07-02T22:50:19.698Z,1.17
2018-07-02T22:52:48.242Z,1.00
2018-07-02T22:55:16.661Z,1.20
2018-07-02T22:57:45.180Z,0.97
2018-07-02T23:00:13.652Z,0.90
2018-07-02T23:02:42.101Z,1.50
2018-07-02T23:05:10.940Z,1.10
2018-07-02T23:07:39.384Z,1.10
2018-07-02T23:10:07.849Z,0.83
2018-07-02T23:12:36.394Z,1.20
2018-07-02T23:15:05.024Z,0.90
2018-07-02T23:17:33.473Z,1.23
2018-07-02T23:20:01.966Z,1.47
2018-07-02T23:22:42.056Z,1.27
2018-07-02T23:25:10.581Z,1.33
2018-07-02T23:27:39.105Z,1.57
2018-07-02T23:30:07.646Z,1.43
2018-07-02T23:32:36.095Z,1.10
2018-07-02T23:35:04.709Z,1.23
2018-07-02T23:37:33.148Z,0.90
2018-07-02T23:40:01.775Z,1.13
2018-07-02T23:42:30.360Z,1.50
2018-07-02T23:44:58.849Z,1.40
2018-07-02T23:47:27.382Z,1.20
2018-07-02T23:49:55.921Z,1.30
2018-07-02T23:52:24.397Z,1.30
2018-07-02T23:54:52.856Z,0.80
2018-07-02T23:57:21.427Z,1.60
2018-07-02T23:59:50.085Z,1.00
